sensor_id;sensor_type;location;lat;lon;timestamp;pressure;altitude;pressure_sealevel;temperature;humidity
72685;BME280;61365;52.162;4.500;2022-08-24T00:01:23;101745.28;;;20.98;74.33
72685;BME280;61365;52.162;4.500;2022-08-24T00:03:53;101747.44;;;20.85;75.17
72685;BME280;61365;52.162;4.500;2022-08-24T00:06:23;101741.97;;;20.57;76.49
72685;BME280;61365;52.162;4.500;2022-08-24T00:08:52;101742.78;;;20.61;76.81
72685;BME280;61365;52.162;4.500;2022-08-24T00:11:20;101738.69;;;20.49;77.15
72685;BME280;61365;52.162;4.500;2022-08-24T00:13:48;101739.81;;;20.40;77.45
72685;BME280;61365;52.162;4.500;2022-08-24T00:16:16;101738.78;;;20.44;77.42
72685;BME280;61365;52.162;4.500;2022-08-24T00:18:43;101743.47;;;20.36;77.80
72685;BME280;61365;52.162;4.500;2022-08-24T00:21:11;101747.50;;;20.51;77.22
72685;BME280;61365;52.162;4.500;2022-08-24T00:23:38;101748.19;;;20.58;76.37
72685;BME280;61365;52.162;4.500;2022-08-24T00:26:05;101748.44;;;20.48;77.07
72685;BME280;61365;52.162;4.500;2022-08-24T00:28:33;101741.66;;;20.36;77.80
72685;BME280;61365;52.162;4.500;2022-08-24T00:30:59;101735.56;;;20.33;78.12
72685;BME280;61365;52.162;4.500;2022-08-24T00:33:26;101743.63;;;20.30;78.67
72685;BME280;61365;52.162;4.500;2022-08-24T00:35:53;101739.22;;;20.29;78.41
72685;BME280;61365;52.162;4.500;2022-08-24T00:38:19;101737.47;;;20.28;78.85
72685;BME280;61365;52.162;4.500;2022-08-24T00:40:47;101737.34;;;20.32;78.72
72685;BME280;61365;52.162;4.500;2022-08-24T00:43:19;101734.72;;;20.31;78.54
72685;BME280;61365;52.162;4.500;2022-08-24T00:48:33;101740.22;;;20.24;78.79
72685;BME280;61365;52.162;4.500;2022-08-24T00:51:15;101737.63;;;20.21;78.94
72685;BME280;61365;52.162;4.500;2022-08-24T00:53:49;101736.81;;;20.19;79.22
72685;BME280;61365;52.162;4.500;2022-08-24T00:56:28;101727.94;;;20.19;79.25
72685;BME280;61365;52.162;4.500;2022-08-24T00:59:04;101734.94;;;20.23;78.48
72685;BME280;61365;52.162;4.500;2022-08-24T01:01:37;101735.69;;;20.28;78.17
72685;BME280;61365;52.162;4.500;2022-08-24T01:04:07;101733.97;;;20.25;78.63
72685;BME280;61365;52.162;4.500;2022-08-24T01:06:46;101733.41;;;20.14;79.90
72685;BME280;61365;52.162;4.500;2022-08-24T01:09:15;101732.69;;;20.07;80.27
72685;BME280;61365;52.162;4.500;2022-08-24T01:11:42;101735.31;;;20.09;80.08
72685;BME280;61365;52.162;4.500;2022-08-24T01:14:08;101731.53;;;20.18;80.40
72685;BME280;61365;52.162;4.500;2022-08-24T01:16:35;101724.44;;;20.17;79.99
72685;BME280;61365;52.162;4.500;2022-08-24T01:19:43;101726.50;;;20.07;81.06
72685;BME280;61365;52.162;4.500;2022-08-24T01:25:14;101735.19;;;20.14;80.13
72685;BME280;61365;52.162;4.500;2022-08-24T01:27:42;101735.88;;;20.20;79.53
72685;BME280;61365;52.162;4.500;2022-08-24T01:30:12;101735.06;;;20.18;80.16
72685;BME280;61365;52.162;4.500;2022-08-24T01:32:40;101740.31;;;20.21;78.79
72685;BME280;61365;52.162;4.500;2022-08-24T01:35:08;101743.03;;;20.18;79.51
72685;BME280;61365;52.162;4.500;2022-08-24T01:37:34;101744.09;;;20.13;80.56
72685;BME280;61365;52.162;4.500;2022-08-24T01:40:04;101754.88;;;20.08;80.53
72685;BME280;61365;52.162;4.500;2022-08-24T01:42:32;101759.09;;;20.17;79.43
72685;BME280;61365;52.162;4.500;2022-08-24T01:44:59;101753.84;;;20.14;80.32
72685;BME280;61365;52.162;4.500;2022-08-24T01:47:26;101755.66;;;20.12;80.40
72685;BME280;61365;52.162;4.500;2022-08-24T01:49:53;101755.75;;;20.08;81.21
72685;BME280;61365;52.162;4.500;2022-08-24T01:52:23;101754.91;;;20.06;80.13
72685;BME280;61365;52.162;4.500;2022-08-24T01:54:51;101762.66;;;20.16;80.17
72685;BME280;61365;52.162;4.500;2022-08-24T01:57:18;101754.91;;;20.06;80.58
72685;BME280;61365;52.162;4.500;2022-08-24T01:59:45;101764.91;;;19.98;81.22
72685;BME280;61365;52.162;4.500;2022-08-24T02:02:26;101748.00;;;19.99;81.86
72685;BME280;61365;52.162;4.500;2022-08-24T02:04:55;101760.81;;;19.83;81.56
72685;BME280;61365;52.162;4.500;2022-08-24T02:07:21;101760.75;;;19.85;82.26
72685;BME280;61365;52.162;4.500;2022-08-24T02:09:48;101758.16;;;19.81;82.31
72685;BME280;61365;52.162;4.500;2022-08-24T02:12:15;101759.19;;;19.76;82.32
72685;BME280;61365;52.162;4.500;2022-08-24T02:14:42;101761.75;;;19.80;82.05
72685;BME280;61365;52.162;4.500;2022-08-24T02:17:09;101754.69;;;19.79;82.50
72685;BME280;61365;52.162;4.500;2022-08-24T02:19:36;101753.59;;;19.87;82.41
72685;BME280;61365;52.162;4.500;2022-08-24T02:22:03;101755.38;;;19.88;82.06
72685;BME280;61365;52.162;4.500;2022-08-24T02:24:30;101755.16;;;19.97;81.46
72685;BME280;61365;52.162;4.500;2022-08-24T02:26:58;101744.34;;;20.03;81.41
72685;BME280;61365;52.162;4.500;2022-08-24T02:29:25;101752.44;;;20.00;81.26
72685;BME280;61365;52.162;4.500;2022-08-24T02:31:51;101750.47;;;20.07;80.32
72685;BME280;61365;52.162;4.500;2022-08-24T02:34:17;101748.78;;;20.04;81.04
72685;BME280;61365;52.162;4.500;2022-08-24T02:36:44;101756.78;;;20.03;80.15
72685;BME280;61365;52.162;4.500;2022-08-24T02:39:11;101743.34;;;20.07;79.53
72685;BME280;61365;52.162;4.500;2022-08-24T02:41:38;101742.31;;;20.13;79.49
72685;BME280;61365;52.162;4.500;2022-08-24T02:44:04;101747.66;;;20.13;79.53
72685;BME280;61365;52.162;4.500;2022-08-24T02:46:31;101742.63;;;20.01;80.78
72685;BME280;61365;52.162;4.500;2022-08-24T02:48:58;101743.47;;;20.03;80.00
72685;BME280;61365;52.162;4.500;2022-08-24T02:51:30;101746.88;;;20.08;80.06
72685;BME280;61365;52.162;4.500;2022-08-24T02:54:00;101745.97;;;20.09;80.06
72685;BME280;61365;52.162;4.500;2022-08-24T02:56:28;101755.09;;;20.00;81.45
72685;BME280;61365;52.162;4.500;2022-08-24T02:58:56;101750.66;;;19.99;80.90
72685;BME280;61365;52.162;4.500;2022-08-24T03:01:25;101747.19;;;19.95;80.88
72685;BME280;61365;52.162;4.500;2022-08-24T03:03:52;101748.94;;;19.97;80.95
72685;BME280;61365;52.162;4.500;2022-08-24T03:06:19;101750.53;;;20.04;80.63
72685;BME280;61365;52.162;4.500;2022-08-24T03:08:46;101743.47;;;20.03;80.66
72685;BME280;61365;52.162;4.500;2022-08-24T03:11:12;101745.28;;;20.01;80.42
72685;BME280;61365;52.162;4.500;2022-08-24T03:13:39;101752.50;;;19.97;80.41
72685;BME280;61365;52.162;4.500;2022-08-24T03:16:06;101757.75;;;20.00;80.45
72685;BME280;61365;52.162;4.500;2022-08-24T03:18:33;101757.69;;;20.02;80.05
72685;BME280;61365;52.162;4.500;2022-08-24T03:21:00;101761.41;;;19.96;81.12
72685;BME280;61365;52.162;4.500;2022-08-24T03:23:28;101763.41;;;19.86;81.98
72685;BME280;61365;52.162;4.500;2022-08-24T03:25:55;101751.91;;;19.84;81.36
72685;BME280;61365;52.162;4.500;2022-08-24T03:28:23;101758.03;;;19.89;81.36
72685;BME280;61365;52.162;4.500;2022-08-24T03:30:49;101758.75;;;19.96;80.86
72685;BME280;61365;52.162;4.500;2022-08-24T03:33:16;101757.69;;;20.02;80.32
72685;BME280;61365;52.162;4.500;2022-08-24T03:35:44;101754.13;;;20.03;80.76
72685;BME280;61365;52.162;4.500;2022-08-24T03:38:10;101757.13;;;19.90;81.59
72685;BME280;61365;52.162;4.500;2022-08-24T03:40:40;101751.97;;;19.81;81.81
72685;BME280;61365;52.162;4.500;2022-08-24T03:43:09;101749.31;;;19.81;82.17
72685;BME280;61365;52.162;4.500;2022-08-24T03:45:56;101752.75;;;19.85;81.66
72685;BME280;61365;52.162;4.500;2022-08-24T03:48:22;101753.81;;;19.79;81.81
72685;BME280;61365;52.162;4.500;2022-08-24T03:50:49;101747.50;;;19.81;82.30
72685;BME280;61365;52.162;4.500;2022-08-24T03:53:16;101753.66;;;19.85;82.12
72685;BME280;61365;52.162;4.500;2022-08-24T03:55:42;101745.28;;;20.01;81.46
72685;BME280;61365;52.162;4.500;2022-08-24T03:58:09;101752.16;;;20.09;80.76
72685;BME280;61365;52.162;4.500;2022-08-24T04:00:35;101746.66;;;20.17;80.55
72685;BME280;61365;52.162;4.500;2022-08-24T04:03:02;101754.75;;;20.13;80.39
72685;BME280;61365;52.162;4.500;2022-08-24T04:05:30;101747.66;;;20.13;80.60
72685;BME280;61365;52.162;4.500;2022-08-24T04:07:56;101755.44;;;20.21;79.87
72685;BME280;61365;52.162;4.500;2022-08-24T04:10:22;101755.44;;;20.21;80.11
72685;BME280;61365;52.162;4.500;2022-08-24T04:12:49;101763.44;;;20.21;80.94
72685;BME280;61365;52.162;4.500;2022-08-24T04:15:15;101752.47;;;20.32;80.33
72685;BME280;61365;52.162;4.500;2022-08-24T04:17:41;101756.81;;;20.34;80.54
72685;BME280;61365;52.162;4.500;2022-08-24T04:20:08;101762.97;;;20.38;80.34
72685;BME280;61365;52.162;4.500;2022-08-24T04:22:35;101764.97;;;20.30;80.85
72685;BME280;61365;52.162;4.500;2022-08-24T04:25:03;101756.81;;;20.36;80.67
72685;BME280;61365;52.162;4.500;2022-08-24T04:27:31;101764.75;;;20.37;80.39
72685;BME280;61365;52.162;4.500;2022-08-24T04:29:57;101761.91;;;20.44;80.30
72685;BME280;61365;52.162;4.500;2022-08-24T04:32:24;101767.88;;;20.53;79.57
72685;BME280;61365;52.162;4.500;2022-08-24T04:34:50;101764.88;;;20.64;79.49
72685;BME280;61365;52.162;4.500;2022-08-24T04:37:16;101767.78;;;20.57;79.35
72685;BME280;61365;52.162;4.500;2022-08-24T04:39:43;101767.69;;;20.60;79.29
72685;BME280;61365;52.162;4.500;2022-08-24T04:42:09;101767.38;;;20.39;80.81
72685;BME280;61365;52.162;4.500;2022-08-24T04:44:36;101776.41;;;20.33;80.49
72685;BME280;61365;52.162;4.500;2022-08-24T04:47:03;101774.03;;;20.22;81.65
72685;BME280;61365;52.162;4.500;2022-08-24T04:49:30;101779.53;;;20.16;81.74
72685;BME280;61365;52.162;4.500;2022-08-24T04:51:57;101783.13;;;20.15;81.77
72685;BME280;61365;52.162;4.500;2022-08-24T04:54:24;101775.84;;;20.20;81.42
72685;BME280;61365;52.162;4.500;2022-08-24T04:56:50;101772.69;;;20.06;81.40
72685;BME280;61365;52.162;4.500;2022-08-24T04:59:16;101780.34;;;20.18;81.34
72685;BME280;61365;52.162;4.500;2022-08-24T05:01:43;101773.16;;;20.22;80.68
72685;BME280;61365;52.162;4.500;2022-08-24T05:04:09;101770.44;;;20.57;80.19
72685;BME280;61365;52.162;4.500;2022-08-24T05:06:36;101782.22;;;21.12;77.98
72685;BME280;61365;52.162;4.500;2022-08-24T05:09:03;101775.56;;;21.54;76.37
72685;BME280;61365;52.162;4.500;2022-08-24T05:11:30;101775.63;;;21.24;76.22
72685;BME280;61365;52.162;4.500;2022-08-24T05:13:57;101773.13;;;20.88;77.87
72685;BME280;61365;52.162;4.500;2022-08-24T05:16:24;101778.63;;;20.82;78.27
72685;BME280;61365;52.162;4.500;2022-08-24T05:18:54;101779.75;;;20.73;79.34
72685;BME280;61365;52.162;4.500;2022-08-24T05:21:23;101780.59;;;20.77;78.88
72685;BME280;61365;52.162;4.500;2022-08-24T05:23:50;101777.84;;;20.80;77.81
72685;BME280;61365;52.162;4.500;2022-08-24T05:26:19;101786.16;;;20.99;77.93
72685;BME280;61365;52.162;4.500;2022-08-24T05:28:58;101784.72;;;21.45;76.69
72685;BME280;61365;52.162;4.500;2022-08-24T05:31:29;101791.78;;;21.48;75.50
72685;BME280;61365;52.162;4.500;2022-08-24T05:33:58;101785.66;;;21.44;76.05
72685;BME280;61365;52.162;4.500;2022-08-24T05:36:27;101782.22;;;21.41;76.27
72685;BME280;61365;52.162;4.500;2022-08-24T05:38:56;101786.81;;;21.66;75.30
72685;BME280;61365;52.162;4.500;2022-08-24T05:41:27;101784.88;;;21.98;74.12
72685;BME280;61365;52.162;4.500;2022-08-24T05:43:54;101787.88;;;22.14;73.62
72685;BME280;61365;52.162;4.500;2022-08-24T05:46:21;101786.63;;;22.24;73.43
72685;BME280;61365;52.162;4.500;2022-08-24T05:48:48;101783.81;;;22.29;73.58
72685;BME280;61365;52.162;4.500;2022-08-24T05:51:14;101776.50;;;22.59;72.19
72685;BME280;61365;52.162;4.500;2022-08-24T05:53:40;101774.56;;;22.87;71.18
72685;BME280;61365;52.162;4.500;2022-08-24T05:56:10;101767.38;;;22.65;71.64
72685;BME280;61365;52.162;4.500;2022-08-24T05:58:38;101776.91;;;22.48;71.44
72685;BME280;61365;52.162;4.500;2022-08-24T06:03:42;101771.59;;;22.47;72.64
72685;BME280;61365;52.162;4.500;2022-08-24T06:06:10;101777.84;;;22.46;72.47
72685;BME280;61365;52.162;4.500;2022-08-24T06:08:39;101777.19;;;22.39;72.68
72685;BME280;61365;52.162;4.500;2022-08-24T06:11:08;101787.22;;;22.32;72.36
72685;BME280;61365;52.162;4.500;2022-08-24T06:13:35;101787.53;;;22.50;72.69
72685;BME280;61365;52.162;4.500;2022-08-24T06:16:07;101790.00;;;23.28;69.79
72685;BME280;61365;52.162;4.500;2022-08-24T06:18:36;101791.69;;;23.75;68.46
72685;BME280;61365;52.162;4.500;2022-08-24T06:21:11;101796.88;;;24.22;67.10
72685;BME280;61365;52.162;4.500;2022-08-24T06:23:40;101793.03;;;25.09;63.24
72685;BME280;61365;52.162;4.500;2022-08-24T06:26:10;101794.72;;;25.85;61.68
72685;BME280;61365;52.162;4.500;2022-08-24T06:28:58;101787.44;;;26.91;58.30
72685;BME280;61365;52.162;4.500;2022-08-24T06:31:28;101791.50;;;26.82;58.51
72685;BME280;61365;52.162;4.500;2022-08-24T06:33:55;101782.78;;;26.44;58.90
72685;BME280;61365;52.162;4.500;2022-08-24T06:36:21;101787.59;;;25.84;61.00
72685;BME280;61365;52.162;4.500;2022-08-24T06:38:48;101789.53;;;25.45;61.85
72685;BME280;61365;52.162;4.500;2022-08-24T06:41:14;101799.56;;;25.78;61.05
72685;BME280;61365;52.162;4.500;2022-08-24T06:43:41;101790.28;;;26.02;60.86
72685;BME280;61365;52.162;4.500;2022-08-24T06:46:07;101786.94;;;26.33;60.13
72685;BME280;61365;52.162;4.500;2022-08-24T06:48:34;101796.25;;;26.08;60.54
72685;BME280;61365;52.162;4.500;2022-08-24T06:51:00;101793.66;;;26.25;60.62
72685;BME280;61365;52.162;4.500;2022-08-24T06:53:27;101790.50;;;26.67;59.03
72685;BME280;61365;52.162;4.500;2022-08-24T06:55:57;101790.09;;;27.09;58.04
72685;BME280;61365;52.162;4.500;2022-08-24T06:58:25;101795.81;;;27.19;58.14
72685;BME280;61365;52.162;4.500;2022-08-24T07:00:54;101795.16;;;27.78;57.08
72685;BME280;61365;52.162;4.500;2022-08-24T07:03:23;101792.78;;;27.87;57.18
72685;BME280;61365;52.162;4.500;2022-08-24T07:08:19;101789.75;;;27.47;57.63
72685;BME280;61365;52.162;4.500;2022-08-24T07:10:46;101797.44;;;28.16;55.68
72685;BME280;61365;52.162;4.500;2022-08-24T07:13:13;101792.69;;;27.59;56.63
72685;BME280;61365;52.162;4.500;2022-08-24T07:15:44;101793.84;;;27.85;56.18
72685;BME280;61365;52.162;4.500;2022-08-24T07:18:15;101796.38;;;28.19;55.17
72685;BME280;61365;52.162;4.500;2022-08-24T07:20:43;101794.00;;;28.57;53.97
72685;BME280;61365;52.162;4.500;2022-08-24T07:23:11;101806.47;;;29.03;53.07
72685;BME280;61365;52.162;4.500;2022-08-24T07:25:43;101797.19;;;28.64;53.39
72685;BME280;61365;52.162;4.500;2022-08-24T07:28:11;101811.78;;;28.90;52.95
72685;BME280;61365;52.162;4.500;2022-08-24T07:30:39;101812.75;;;28.89;52.85
72685;BME280;61365;52.162;4.500;2022-08-24T07:33:07;101810.22;;;29.01;52.71
72685;BME280;61365;52.162;4.500;2022-08-24T07:35:34;101810.81;;;28.77;53.37
72685;BME280;61365;52.162;4.500;2022-08-24T07:38:03;101807.44;;;29.02;53.17
72685;BME280;61365;52.162;4.500;2022-08-24T07:40:31;101810.97;;;29.17;51.78
72685;BME280;61365;52.162;4.500;2022-08-24T07:42:59;101812.75;;;29.46;51.61
72685;BME280;61365;52.162;4.500;2022-08-24T07:45:26;101822.50;;;29.76;50.52
72685;BME280;61365;52.162;4.500;2022-08-24T07:47:54;101818.34;;;29.57;51.69
72685;BME280;61365;52.162;4.500;2022-08-24T07:50:21;101826.06;;;29.76;51.18
72685;BME280;61365;52.162;4.500;2022-08-24T07:52:47;101820.97;;;29.72;51.21
72685;BME280;61365;52.162;4.500;2022-08-24T07:55:14;101814.81;;;29.97;50.24
72685;BME280;61365;52.162;4.500;2022-08-24T07:57:40;101820.19;;;29.70;50.79
72685;BME280;61365;52.162;4.500;2022-08-24T08:00:12;101821.97;;;29.98;49.92
72685;BME280;61365;52.162;4.500;2022-08-24T08:02:41;101824.09;;;29.65;51.34
72685;BME280;61365;52.162;4.500;2022-08-24T08:05:16;101816.84;;;29.24;51.38
72685;BME280;61365;52.162;4.500;2022-08-24T08:07:46;101827.78;;;29.23;52.15
72685;BME280;61365;52.162;4.500;2022-08-24T08:10:12;101840.50;;;29.49;51.51
72685;BME280;61365;52.162;4.500;2022-08-24T08:12:39;101842.41;;;29.47;51.50
72685;BME280;61365;52.162;4.500;2022-08-24T08:15:07;101837.66;;;29.51;51.14
72685;BME280;61365;52.162;4.500;2022-08-24T08:17:37;101838.25;;;30.24;49.91
72685;BME280;61365;52.162;4.500;2022-08-24T08:20:06;101840.59;;;29.75;50.89
72685;BME280;61365;52.162;4.500;2022-08-24T08:22:34;101837.88;;;29.33;51.98
72685;BME280;61365;52.162;4.500;2022-08-24T08:25:19;101840.94;;;30.24;49.95
72685;BME280;61365;52.162;4.500;2022-08-24T08:27:46;101847.31;;;30.10;49.96
72685;BME280;61365;52.162;4.500;2022-08-24T08:30:12;101847.34;;;30.23;49.67
72685;BME280;61365;52.162;4.500;2022-08-24T08:32:39;101856.31;;;30.23;49.73
72685;BME280;61365;52.162;4.500;2022-08-24T08:35:06;101846.41;;;29.96;50.15
72685;BME280;61365;52.162;4.500;2022-08-24T08:37:32;101843.22;;;30.30;49.74
72685;BME280;61365;52.162;4.500;2022-08-24T08:39:59;101841.81;;;30.37;49.89
72685;BME280;61365;52.162;4.500;2022-08-24T09:08:26;101835.28;;;29.46;50.92
72685;BME280;61365;52.162;4.500;2022-08-24T09:20:11;101848.31;;;29.94;48.82
72685;BME280;61365;52.162;4.500;2022-08-24T09:23:24;101854.34;;;30.13;50.21
72685;BME280;61365;52.162;4.500;2022-08-24T09:31:55;101856.06;;;29.73;50.05
72685;BME280;61365;52.162;4.500;2022-08-24T09:35:01;101851.53;;;29.87;50.10
72685;BME280;61365;52.162;4.500;2022-08-24T09:53:25;101845.63;;;30.99;47.72
72685;BME280;61365;52.162;4.500;2022-08-24T09:56:00;101843.03;;;30.98;46.08
72685;BME280;61365;52.162;4.500;2022-08-24T10:01:42;101846.50;;;30.87;47.47
72685;BME280;61365;52.162;4.500;2022-08-24T10:04:36;101843.78;;;30.87;47.94
72685;BME280;61365;52.162;4.500;2022-08-24T10:16:13;101844.13;;;30.95;47.42
72685;BME280;61365;52.162;4.500;2022-08-24T10:31:07;101822.66;;;30.92;45.28
72685;BME280;61365;52.162;4.500;2022-08-24T10:37:05;101821.56;;;30.95;45.98
72685;BME280;61365;52.162;4.500;2022-08-24T10:40:11;101829.56;;;31.09;46.43
72685;BME280;61365;52.162;4.500;2022-08-24T10:55:22;101838.56;;;29.64;51.19
72685;BME280;61365;52.162;4.500;2022-08-24T10:58:12;101833.63;;;29.44;51.64
72685;BME280;61365;52.162;4.500;2022-08-24T11:00:45;101835.31;;;29.87;50.76
72685;BME280;61365;52.162;4.500;2022-08-24T11:03:15;101839.09;;;29.84;51.23
72685;BME280;61365;52.162;4.500;2022-08-24T11:05:51;101840.44;;;29.64;52.45
72685;BME280;61365;52.162;4.500;2022-08-24T11:08:27;101836.19;;;29.60;52.48
72685;BME280;61365;52.162;4.500;2022-08-24T11:11:12;101837.72;;;29.64;52.18
72685;BME280;61365;52.162;4.500;2022-08-24T11:14:02;101837.19;;;29.30;53.74
72685;BME280;61365;52.162;4.500;2022-08-24T11:16:40;101828.31;;;29.28;52.96
72685;BME280;61365;52.162;4.500;2022-08-24T11:19:12;101839.94;;;29.15;53.17
72685;BME280;61365;52.162;4.500;2022-08-24T11:21:57;101829.81;;;28.90;53.96
72685;BME280;61365;52.162;4.500;2022-08-24T11:24:43;101838.22;;;29.00;53.66
72685;BME280;61365;52.162;4.500;2022-08-24T11:32:36;101832.88;;;28.55;54.52
72685;BME280;61365;52.162;4.500;2022-08-24T11:35:18;101831.94;;;29.56;51.34
72685;BME280;61365;52.162;4.500;2022-08-24T11:37:45;101836.72;;;29.92;50.69
72685;BME280;61365;52.162;4.500;2022-08-24T11:40:15;101839.41;;;30.07;50.40
72685;BME280;61365;52.162;4.500;2022-08-24T11:48:59;101826.41;;;31.03;47.36
72685;BME280;61365;52.162;4.500;2022-08-24T11:51:29;101829.28;;;30.62;48.63
72685;BME280;61365;52.162;4.500;2022-08-24T11:59:56;101836.84;;;29.91;50.14
72685;BME280;61365;52.162;4.500;2022-08-24T12:02:57;101831.56;;;30.02;50.16
72685;BME280;61365;52.162;4.500;2022-08-24T12:08:22;101831.50;;;29.89;49.85
72685;BME280;61365;52.162;4.500;2022-08-24T12:11:38;101817.88;;;29.78;51.26
72685;BME280;61365;52.162;4.500;2022-08-24T12:14:22;101817.25;;;29.87;50.58
72685;BME280;61365;52.162;4.500;2022-08-24T12:17:11;101816.66;;;30.09;49.85
72685;BME280;61365;52.162;4.500;2022-08-24T12:19:50;101821.09;;;29.70;50.87
72685;BME280;61365;52.162;4.500;2022-08-24T12:22:21;101816.34;;;30.27;48.93
72685;BME280;61365;52.162;4.500;2022-08-24T12:24:51;101819.28;;;30.11;49.47
72685;BME280;61365;52.162;4.500;2022-08-24T12:27:27;101828.88;;;30.02;50.15
72685;BME280;61365;52.162;4.500;2022-08-24T12:30:11;101823.09;;;29.94;50.57
72685;BME280;61365;52.162;4.500;2022-08-24T12:32:47;101821.84;;;30.00;50.57
72685;BME280;61365;52.162;4.500;2022-08-24T12:35:36;101820.34;;;30.21;48.41
72685;BME280;61365;52.162;4.500;2022-08-24T12:38:15;101818.38;;;29.98;50.88
72685;BME280;61365;52.162;4.500;2022-08-24T12:40:52;101822.41;;;30.05;49.62
72685;BME280;61365;52.162;4.500;2022-08-24T12:46:24;101827.47;;;29.96;49.60
72685;BME280;61365;52.162;4.500;2022-08-24T12:49:00;101830.41;;;30.06;49.77
72685;BME280;61365;52.162;4.500;2022-08-24T12:52:12;101820.22;;;29.97;49.53
72685;BME280;61365;52.162;4.500;2022-08-24T12:57:56;101834.19;;;30.04;49.23
72685;BME280;61365;52.162;4.500;2022-08-24T13:00:36;101828.56;;;29.79;50.71
72685;BME280;61365;52.162;4.500;2022-08-24T13:03:30;101823.91;;;29.81;50.90
72685;BME280;61365;52.162;4.500;2022-08-24T13:06:06;101828.41;;;29.95;50.94
72685;BME280;61365;52.162;4.500;2022-08-24T13:08:48;101827.06;;;30.16;50.46
72685;BME280;61365;52.162;4.500;2022-08-24T13:19:31;101820.59;;;29.50;51.25
72685;BME280;61365;52.162;4.500;2022-08-24T13:24:46;101823.69;;;29.30;52.36
72685;BME280;61365;52.162;4.500;2022-08-24T13:30:03;101821.84;;;29.45;51.65
72685;BME280;61365;52.162;4.500;2022-08-24T13:32:35;101824.75;;;29.27;51.75
72685;BME280;61365;52.162;4.500;2022-08-24T13:35:28;101823.44;;;29.05;52.96
72685;BME280;61365;52.162;4.500;2022-08-24T14:04:32;101829.44;;;28.82;54.25
72685;BME280;61365;52.162;4.500;2022-08-24T14:10:07;101828.69;;;28.80;53.86
72685;BME280;61365;52.162;4.500;2022-08-24T14:13:03;101824.50;;;29.03;53.33
72685;BME280;61365;52.162;4.500;2022-08-24T14:19:15;101822.22;;;28.97;54.02
72685;BME280;61365;52.162;4.500;2022-08-24T14:21:56;101821.69;;;29.19;53.48
72685;BME280;61365;52.162;4.500;2022-08-24T14:25:11;101819.78;;;29.06;54.14
72685;BME280;61365;52.162;4.500;2022-08-24T14:27:45;101818.13;;;29.04;54.99
72685;BME280;61365;52.162;4.500;2022-08-24T14:35:27;101814.88;;;28.84;54.92
72685;BME280;61365;52.162;4.500;2022-08-24T14:41:00;101802.88;;;28.59;55.64
72685;BME280;61365;52.162;4.500;2022-08-24T14:44:03;101814.16;;;28.66;55.69
72685;BME280;61365;52.162;4.500;2022-08-24T14:58:11;101803.53;;;28.63;55.39
72685;BME280;61365;52.162;4.500;2022-08-24T15:04:10;101802.97;;;28.72;55.23
72685;BME280;61365;52.162;4.500;2022-08-24T15:07:06;101795.94;;;28.41;56.72
72685;BME280;61365;52.162;4.500;2022-08-24T15:09:49;101800.97;;;28.76;55.11
72685;BME280;61365;52.162;4.500;2022-08-24T15:12:25;101798.03;;;28.36;55.34
72685;BME280;61365;52.162;4.500;2022-08-24T15:15:19;101791.31;;;28.57;54.41
72685;BME280;61365;52.162;4.500;2022-08-24T15:18:02;101788.56;;;28.28;55.89
72685;BME280;61365;52.162;4.500;2022-08-24T15:30:00;101793.19;;;28.26;55.02
72685;BME280;61365;52.162;4.500;2022-08-24T15:32:50;101786.28;;;28.51;55.41
72685;BME280;61365;52.162;4.500;2022-08-24T15:35:25;101791.88;;;28.34;56.46
72685;BME280;61365;52.162;4.500;2022-08-24T15:38:15;101789.66;;;28.26;55.93
72685;BME280;61365;52.162;4.500;2022-08-24T15:40:41;101791.66;;;28.22;55.89
72685;BME280;61365;52.162;4.500;2022-08-24T15:43:09;101790.25;;;28.60;54.62
72685;BME280;61365;52.162;4.500;2022-08-24T15:45:42;101790.94;;;28.49;54.57
72685;BME280;61365;52.162;4.500;2022-08-24T15:48:14;101786.88;;;28.42;54.31
72685;BME280;61365;52.162;4.500;2022-08-24T15:50:46;101786.28;;;28.22;55.50
72685;BME280;61365;52.162;4.500;2022-08-24T15:53:33;101782.81;;;28.35;55.23
72685;BME280;61365;52.162;4.500;2022-08-24T15:58:53;101784.34;;;28.24;54.20
72685;BME280;61365;52.162;4.500;2022-08-24T16:01:24;101784.63;;;28.20;54.53
72685;BME280;61365;52.162;4.500;2022-08-24T16:04:12;101787.44;;;28.32;55.00
72685;BME280;61365;52.162;4.500;2022-08-24T16:06:58;101781.56;;;28.26;55.91
72685;BME280;61365;52.162;4.500;2022-08-24T16:12:12;101784.25;;;28.40;54.98
72685;BME280;61365;52.162;4.500;2022-08-24T16:14:49;101787.31;;;28.20;55.89
72685;BME280;61365;52.162;4.500;2022-08-24T16:17:33;101794.66;;;28.01;55.83
72685;BME280;61365;52.162;4.500;2022-08-24T16:22:56;101786.22;;;27.45;58.05
72685;BME280;61365;52.162;4.500;2022-08-24T16:25:38;101777.31;;;27.61;57.31
72685;BME280;61365;52.162;4.500;2022-08-24T16:30:58;101776.34;;;27.30;59.16
72685;BME280;61365;52.162;4.500;2022-08-24T16:36:13;101775.78;;;27.39;58.93
72685;BME280;61365;52.162;4.500;2022-08-24T16:38:48;101773.38;;;27.34;58.38
72685;BME280;61365;52.162;4.500;2022-08-24T16:41:18;101778.41;;;27.40;57.69
72685;BME280;61365;52.162;4.500;2022-08-24T16:43:47;101773.03;;;27.24;57.83
72685;BME280;61365;52.162;4.500;2022-08-24T16:46:21;101771.81;;;27.14;58.25
72685;BME280;61365;52.162;4.500;2022-08-24T16:48:50;101771.75;;;27.32;58.26
72685;BME280;61365;52.162;4.500;2022-08-24T16:51:18;101763.66;;;27.16;59.05
72685;BME280;61365;52.162;4.500;2022-08-24T16:53:49;101766.69;;;27.25;59.35
72685;BME280;61365;52.162;4.500;2022-08-24T16:56:15;101764.16;;;27.06;58.25
72685;BME280;61365;52.162;4.500;2022-08-24T16:58:42;101761.28;;;26.93;58.57
72685;BME280;61365;52.162;4.500;2022-08-24T17:01:14;101760.16;;;26.81;58.90
72685;BME280;61365;52.162;4.500;2022-08-24T17:03:40;101755.75;;;26.63;59.43